createdAt,value
2019-01-18T00:00:43.616Z,7.19
2019-01-18T00:03:16.464Z,7.17
2019-01-18T00:05:51.623Z,7.15
2019-01-18T00:08:42.449Z,7.20
2019-01-18T00:11:21.278Z,7.23
2019-01-18T00:14:02.001Z,7.21
2019-01-18T00:16:54.680Z,7.22
2019-01-18T00:19:37.431Z,7.14
2019-01-18T00:22:19.099Z,7.17
2019-01-18T00:25:01.349Z,7.18
2019-01-18T00:27:44.850Z,7.09
2019-01-18T00:30:28.297Z,7.17
2019-01-18T00:33:10.893Z,7.22
2019-01-18T00:35:50.400Z,7.22
2019-01-18T00:38:36.007Z,7.26
2019-01-18T00:41:17.621Z,7.29
2019-01-18T00:43:59.518Z,7.26
2019-01-18T00:46:44.430Z,7.33
2019-01-18T00:49:19.946Z,7.39
2019-01-18T00:52:12.601Z,7.41
2019-01-18T00:55:04.756Z,7.41
2019-01-18T00:57:43.376Z,7.51
2019-01-18T01:00:27.204Z,7.46
2019-01-18T01:03:09.732Z,7.42
2019-01-18T01:05:51.532Z,7.63
2019-01-18T01:08:23.777Z,7.60
2019-01-18T01:10:59.773Z,7.66
2019-01-18T01:13:34.200Z,7.55
2019-01-18T01:16:04.827Z,7.60
2019-01-18T01:21:55.261Z,7.72
2019-01-18T01:24:26.019Z,7.79
2019-01-18T01:27:02.954Z,7.87
2019-01-18T01:32:35.652Z,7.90
2019-01-18T01:35:07.283Z,7.93
2019-01-18T01:37:37.596Z,7.94
2019-01-18T01:40:13.271Z,8.00
2019-01-18T01:42:45.631Z,8.05
2019-01-18T01:45:15.848Z,8.08
2019-01-18T01:47:46.111Z,8.08
2019-01-18T01:50:21.953Z,8.08
2019-01-18T01:52:55.163Z,8.14
2019-01-18T01:55:25.029Z,8.21
2019-01-18T01:57:54.858Z,8.23
2019-01-18T02:00:27.055Z,8.20
2019-01-18T02:02:57.913Z,8.21
2019-01-18T02:05:29.207Z,7.95
2019-01-18T02:08:00.061Z,7.93
2019-01-18T02:10:31.457Z,7.82
2019-01-18T02:13:01.356Z,7.93
2019-01-18T02:15:32.039Z,7.84
2019-01-18T02:18:02.045Z,7.95
2019-01-18T02:24:00.392Z,7.93
2019-01-18T02:26:32.663Z,7.96
2019-01-18T02:29:03.247Z,7.96
2019-01-18T02:34:55.583Z,8.05
2019-01-18T02:37:31.859Z,8.10
2019-01-18T02:40:02.059Z,8.12
2019-01-18T02:42:32.438Z,8.13
2019-01-18T02:45:02.762Z,8.08
2019-01-18T02:47:35.716Z,8.13
2019-01-18T02:50:10.616Z,8.07
2019-01-18T02:52:41.412Z,7.99
2019-01-18T02:55:14.385Z,8.12
2019-01-18T02:57:45.729Z,8.14
2019-01-18T03:00:22.193Z,8.10
2019-01-18T03:02:57.846Z,8.03
2019-01-18T03:05:28.985Z,7.87
2019-01-18T03:07:58.833Z,8.07
2019-01-18T03:10:30.362Z,7.98
2019-01-18T03:13:00.733Z,8.08
2019-01-18T03:15:30.860Z,8.10
2019-01-18T03:18:13.421Z,8.17
2019-01-18T03:20:50.452Z,8.09
2019-01-18T03:23:27.247Z,8.02
2019-01-18T03:26:06.871Z,8.01
2019-01-18T03:28:40.624Z,7.94
2019-01-18T03:31:24.726Z,7.94
2019-01-18T03:34:24.680Z,8.00
2019-01-18T03:37:27.001Z,8.01
2019-01-18T03:40:09.916Z,8.03
2019-01-18T03:42:56.652Z,7.97
2019-01-18T03:45:43.956Z,8.00
2019-01-18T03:48:18.462Z,8.08
2019-01-18T03:50:51.115Z,8.14
2019-01-18T03:53:21.062Z,8.11
2019-01-18T03:55:51.663Z,8.13
2019-01-18T03:58:21.929Z,8.24
2019-01-18T04:00:52.417Z,8.16
2019-01-18T04:03:26.871Z,8.28
2019-01-18T04:05:58.011Z,8.11
2019-01-18T04:08:27.936Z,8.12
2019-01-18T04:10:57.858Z,8.29
2019-01-18T04:13:28.109Z,8.30
2019-01-18T04:15:57.954Z,8.27
2019-01-18T04:18:28.379Z,8.32
2019-01-18T04:20:58.575Z,8.32
2019-01-18T04:23:28.649Z,8.26
2019-01-18T04:25:59.930Z,8.11
2019-01-18T04:28:29.916Z,8.19
2019-01-18T04:30:59.974Z,8.29
2019-01-18T04:33:30.554Z,8.28
2019-01-18T04:36:00.538Z,8.31
2019-01-18T04:38:31.345Z,8.25
2019-01-18T04:41:01.331Z,8.23
2019-01-18T04:43:31.266Z,8.29
2019-01-18T04:46:01.629Z,8.24
2019-01-18T04:48:32.408Z,8.30
2019-01-18T04:51:02.224Z,8.29
2019-01-18T04:53:32.315Z,8.26
2019-01-18T04:56:02.691Z,8.15
2019-01-18T04:58:32.678Z,8.32
2019-01-18T05:01:02.576Z,8.39
2019-01-18T05:03:35.534Z,8.38
2019-01-18T05:06:07.034Z,8.51
2019-01-18T05:08:37.533Z,8.53
2019-01-18T05:11:07.565Z,8.50
2019-01-18T05:13:37.536Z,8.41
2019-01-18T05:16:09.483Z,8.42
2019-01-18T05:22:01.290Z,8.62
2019-01-18T05:24:32.949Z,8.60
2019-01-18T05:27:09.626Z,8.51
2019-01-18T05:32:56.465Z,8.57
2019-01-18T05:35:27.166Z,8.47
2019-01-18T05:37:57.677Z,8.56
2019-01-18T05:40:27.974Z,8.60
2019-01-18T05:42:57.845Z,8.67
2019-01-18T05:45:27.881Z,8.57
2019-01-18T05:48:07.661Z,8.52
2019-01-18T05:50:38.292Z,8.47
2019-01-18T05:53:15.158Z,8.40
2019-01-18T05:55:59.487Z,8.39
2019-01-18T05:58:42.759Z,8.30
2019-01-18T06:01:15.571Z,8.29
2019-01-18T06:04:06.818Z,8.26
2019-01-18T06:07:03.099Z,8.32
2019-01-18T06:09:53.409Z,8.37
2019-01-18T06:12:27.852Z,8.32
2019-01-18T06:14:57.852Z,8.34
2019-01-18T06:17:28.755Z,8.33
2019-01-18T06:19:58.785Z,8.32
2019-01-18T06:22:29.308Z,8.27
2019-01-18T06:24:59.458Z,8.28
2019-01-18T06:27:29.677Z,8.38
2019-01-18T06:29:59.677Z,8.48
2019-01-18T06:32:29.798Z,8.52
2019-01-18T06:34:59.840Z,8.53
2019-01-18T06:37:30.912Z,8.46
2019-01-18T06:40:01.557Z,8.36
2019-01-18T06:42:38.603Z,8.34
2019-01-18T06:45:16.391Z,8.26
2019-01-18T06:47:46.289Z,8.19
2019-01-18T06:50:51.013Z,8.17
2019-01-18T06:53:24.511Z,8.23
2019-01-18T06:55:56.013Z,8.17
2019-01-18T06:58:26.166Z,8.29
2019-01-18T07:01:00.048Z,8.35
2019-01-18T07:03:34.178Z,8.35
2019-01-18T07:06:17.923Z,8.31
2019-01-18T07:08:47.765Z,8.27
2019-01-18T07:11:18.517Z,8.32
2019-01-18T07:13:59.605Z,8.23
2019-01-18T07:16:44.609Z,8.27
2019-01-18T07:19:21.297Z,8.25
2019-01-18T07:22:17.616Z,8.19
2019-01-18T07:24:56.164Z,8.27
2019-01-18T07:28:00.559Z,8.27
2019-01-18T07:30:58.754Z,8.31
2019-01-18T07:33:29.437Z,8.37
2019-01-18T07:35:59.923Z,8.40
2019-01-18T07:38:47.137Z,8.47
2019-01-18T07:41:55.428Z,8.46
2019-01-18T07:44:31.378Z,8.49
2019-01-18T07:47:23.080Z,8.48
2019-01-18T07:49:58.993Z,8.40
2019-01-18T07:52:47.346Z,8.45
2019-01-18T07:55:40.414Z,8.53
2019-01-18T07:58:44.668Z,8.58
2019-01-18T08:01:22.274Z,8.62
2019-01-18T08:04:16.044Z,8.62
2019-01-18T08:06:59.479Z,8.70
2019-01-18T08:13:12.599Z,8.59
2019-01-18T08:16:02.713Z,8.69
2019-01-18T08:19:05.602Z,8.79
2019-01-18T08:25:05.153Z,8.92
2019-01-18T08:27:52.320Z,8.84
2019-01-18T08:30:45.136Z,8.96
2019-01-18T08:36:12.241Z,9.09
2019-01-18T08:38:55.414Z,9.11
2019-01-18T08:41:38.010Z,9.21
2019-01-18T08:44:10.184Z,9.13
2019-01-18T08:46:48.314Z,9.22
2019-01-18T08:49:45.301Z,9.15
2019-01-18T08:52:38.917Z,9.26
2019-01-18T08:55:34.546Z,9.29
2019-01-18T08:58:14.514Z,9.22
2019-01-18T09:01:00.286Z,9.19
2019-01-18T09:04:03.400Z,9.29
2019-01-18T09:07:04.831Z,9.30
2019-01-18T09:09:41.098Z,9.26
2019-01-18T09:12:34.832Z,9.16
2019-01-18T09:15:49.735Z,9.09
2019-01-18T09:18:54.950Z,9.04
2019-01-18T09:21:51.711Z,9.02
2019-01-18T09:24:45.759Z,9.04
2019-01-18T09:27:23.304Z,8.93
2019-01-18T09:30:19.772Z,8.93
2019-01-18T09:33:15.187Z,8.85
2019-01-18T09:36:16.479Z,8.86
2019-01-18T09:39:12.799Z,8.77
2019-01-18T09:42:08.894Z,8.75
2019-01-18T09:44:43.860Z,8.68
2019-01-18T09:47:18.740Z,8.64
2019-01-18T09:49:54.269Z,8.69
2019-01-18T09:52:31.082Z,8.74
2019-01-18T09:55:29.846Z,8.75
2019-01-18T09:58:19.935Z,8.75
2019-01-18T10:01:13.033Z,8.83
2019-01-18T10:07:09.775Z,9.10
2019-01-18T10:09:49.794Z,9.14
2019-01-18T10:16:50.976Z,9.20
2019-01-18T10:19:33.243Z,9.40
2019-01-18T10:22:25.216Z,9.48
2019-01-18T10:25:29.215Z,9.57
2019-01-18T10:31:19.728Z,9.65
2019-01-18T10:33:54.613Z,9.78
2019-01-18T10:36:38.806Z,9.85
2019-01-18T10:39:37.886Z,9.88
2019-01-18T10:46:00.548Z,9.97
2019-01-18T10:48:55.672Z,10.02
2019-01-18T11:04:53.325Z,10.10
2019-01-18T11:07:35.231Z,10.21
2019-01-18T11:10:09.007Z,10.16
2019-01-18T11:13:25.248Z,10.03
2019-01-18T11:16:12.271Z,10.04
2019-01-18T11:19:07.779Z,10.06
2019-01-18T11:21:44.139Z,10.05
2019-01-18T11:24:23.237Z,10.06
2019-01-18T11:27:09.111Z,10.18
2019-01-18T11:29:54.138Z,10.26
2019-01-18T11:32:47.387Z,10.27
2019-01-18T11:35:22.478Z,10.24
2019-01-18T11:38:01.354Z,10.20
2019-01-18T11:40:58.928Z,10.27
2019-01-18T11:44:17.580Z,10.14
2019-01-18T11:47:23.941Z,10.12
2019-01-18T11:49:57.865Z,10.15
2019-01-18T11:52:33.528Z,10.20
2019-01-18T11:55:21.210Z,10.23
2019-01-18T11:58:36.068Z,10.17
2019-01-18T12:01:25.489Z,10.15
2019-01-18T12:04:21.400Z,10.18
2019-01-18T12:07:19.038Z,10.17
2019-01-18T12:10:27.035Z,10.26
2019-01-18T12:13:02.575Z,10.24
2019-01-18T12:15:53.356Z,10.45
2019-01-18T12:18:33.726Z,10.60
2019-01-18T12:21:22.811Z,10.63
2019-01-18T12:24:05.580Z,10.62
2019-01-18T12:27:11.815Z,10.64
2019-01-18T12:30:08.594Z,10.67
2019-01-18T12:32:52.442Z,10.66
2019-01-18T12:35:37.655Z,10.61
2019-01-18T12:38:39.946Z,10.72
2019-01-18T12:41:27.745Z,10.73
2019-01-18T12:44:00.454Z,10.79
2019-01-18T12:46:42.053Z,10.73
2019-01-18T12:49:13.248Z,10.55
2019-01-18T12:52:02.129Z,10.56
2019-01-18T12:54:33.230Z,10.53
2019-01-18T12:57:07.555Z,10.57
2019-01-18T12:59:46.382Z,10.58
2019-01-18T13:02:35.409Z,10.58
2019-01-18T13:08:23.768Z,10.48
2019-01-18T13:10:56.348Z,10.41
2019-01-18T13:13:38.918Z,10.52
2019-01-18T13:19:36.882Z,10.58
2019-01-18T13:22:15.199Z,10.61
2019-01-18T13:24:53.757Z,10.81
2019-01-18T13:27:29.538Z,10.81
2019-01-18T13:29:59.504Z,10.70
2019-01-18T13:32:41.689Z,10.73
2019-01-18T13:35:20.974Z,10.65
2019-01-18T13:37:55.200Z,10.64
2019-01-18T13:40:30.148Z,10.64
2019-01-18T13:43:07.911Z,10.61
2019-01-18T13:45:53.721Z,10.61
2019-01-18T13:48:36.328Z,10.74
2019-01-18T13:51:50.792Z,11.26
2019-01-18T13:55:11.484Z,11.15
2019-01-18T13:58:18.933Z,11.44
2019-01-18T14:00:59.801Z,10.98
2019-01-18T14:03:44.185Z,11.37
2019-01-18T14:06:36.597Z,11.25
2019-01-18T14:09:25.151Z,11.07
2019-01-18T14:12:03.120Z,11.16
2019-01-18T14:14:45.710Z,11.06
2019-01-18T14:17:23.413Z,10.94
2019-01-18T14:20:22.813Z,11.22
2019-01-18T14:23:09.801Z,11.44
2019-01-18T14:25:59.535Z,11.32
2019-01-18T14:28:40.990Z,11.14
2019-01-18T14:31:35.619Z,11.09
2019-01-18T14:34:40.961Z,11.11
2019-01-18T14:37:29.927Z,11.48
2019-01-18T14:40:30.806Z,11.34
2019-01-18T14:43:34.279Z,10.94
2019-01-18T14:46:16.083Z,10.86
2019-01-18T14:49:10.504Z,10.79
2019-01-18T14:52:03.544Z,10.78
2019-01-18T14:55:24.598Z,10.80
2019-01-18T14:58:17.020Z,10.84
2019-01-18T15:00:55.527Z,10.78
2019-01-18T15:03:36.154Z,10.61
2019-01-18T15:09:57.575Z,10.44
2019-01-18T15:12:53.736Z,10.27
2019-01-18T15:15:45.158Z,10.10
2019-01-18T15:19:00.400Z,10.05
2019-01-18T15:21:54.516Z,10.04
2019-01-18T15:30:53.123Z,9.90
2019-01-18T15:33:26.256Z,9.85
2019-01-18T15:36:03.466Z,9.77
2019-01-18T15:38:42.516Z,9.75
2019-01-18T15:42:01.802Z,9.63
2019-01-18T15:44:37.139Z,9.60
2019-01-18T15:47:25.036Z,9.59
2019-01-18T15:50:05.349Z,9.50
2019-01-18T15:52:41.275Z,9.40
2019-01-18T15:55:30.300Z,9.35
2019-01-18T15:58:05.213Z,9.46
2019-01-18T16:00:55.576Z,9.38
2019-01-18T16:03:45.292Z,9.36
2019-01-18T16:07:01.712Z,9.35
2019-01-18T16:09:47.172Z,9.28
2019-01-18T16:12:31.634Z,9.32
2019-01-18T16:15:10.774Z,9.31
2019-01-18T16:18:03.225Z,9.38
2019-01-18T16:21:04.826Z,9.35
2019-01-18T16:27:01.765Z,9.23
2019-01-18T16:29:33.340Z,9.15
2019-01-18T16:32:08.763Z,9.03
2019-01-18T16:34:47.988Z,8.94
2019-01-18T16:37:27.962Z,8.89
2019-01-18T16:40:00.946Z,8.89
2019-01-18T16:42:36.015Z,8.84
2019-01-18T16:45:14.980Z,8.81
2019-01-18T16:48:01.877Z,8.76
2019-01-18T16:50:46.264Z,8.80
2019-01-18T16:53:41.370Z,8.79
2019-01-18T16:56:14.914Z,8.76
2019-01-18T16:59:15.234Z,8.77
2019-01-18T17:01:56.915Z,8.76
2019-01-18T17:04:36.527Z,8.75
2019-01-18T17:07:20.522Z,8.68
2019-01-18T17:09:58.134Z,8.60
2019-01-18T17:12:31.302Z,8.54
2019-01-18T17:15:31.188Z,8.54
2019-01-18T17:18:07.027Z,8.42
2019-01-18T17:20:56.433Z,8.39
2019-01-18T17:23:32.901Z,8.45
2019-01-18T17:26:09.858Z,8.41
2019-01-18T17:28:42.368Z,8.43
2019-01-18T17:31:15.071Z,8.25
2019-01-18T17:33:48.681Z,8.11
2019-01-18T17:36:25.102Z,8.17
2019-01-18T17:39:20.971Z,8.00
2019-01-18T17:45:39.010Z,7.95
2019-01-18T17:48:19.207Z,7.90
2019-01-18T17:51:23.836Z,8.00
2019-01-18T17:54:34.670Z,8.10
2019-01-18T17:57:44.504Z,8.17
2019-01-18T18:01:08.880Z,8.17
2019-01-18T18:04:06.548Z,8.11
2019-01-18T18:07:04.300Z,8.08
2019-01-18T18:10:23.372Z,8.07
2019-01-18T18:13:41.951Z,7.98
2019-01-18T18:20:01.990Z,7.69
2019-01-18T18:23:29.444Z,7.69
2019-01-18T18:30:13.983Z,7.56
2019-01-18T18:33:32.994Z,7.49
2019-01-18T18:36:34.205Z,7.57
2019-01-18T18:39:40.812Z,7.43
2019-01-18T18:42:35.101Z,7.44
2019-01-18T18:45:56.561Z,7.39
2019-01-18T18:48:51.027Z,7.38
2019-01-18T18:52:06.834Z,7.12
2019-01-18T18:55:19.121Z,7.20
2019-01-18T19:01:50.082Z,7.02
2019-01-18T19:04:53.224Z,7.08
2019-01-18T19:07:46.191Z,7.06
2019-01-18T19:10:40.719Z,6.98
2019-01-18T19:17:15.465Z,7.11
2019-01-18T19:20:41.327Z,7.08
2019-01-18T19:24:08.040Z,7.06
2019-01-18T19:27:31.462Z,6.72
2019-01-18T19:31:02.942Z,6.60
2019-01-18T19:34:04.512Z,6.84
2019-01-18T19:37:34.415Z,7.01
2019-01-18T19:40:37.418Z,7.01
2019-01-18T19:43:57.084Z,6.80
2019-01-18T19:47:02.516Z,6.84
2019-01-18T19:53:41.134Z,6.82
2019-01-18T19:56:41.953Z,6.71
2019-01-18T19:59:37.168Z,6.71
2019-01-18T20:02:44.753Z,6.45
2019-01-18T20:05:55.743Z,6.45
2019-01-18T20:09:03.341Z,6.45
2019-01-18T20:12:31.106Z,6.39
2019-01-18T20:15:39.055Z,6.39
2019-01-18T20:18:18.817Z,6.25
2019-01-18T20:21:19.559Z,6.26
2019-01-18T20:24:38.213Z,6.30
2019-01-18T20:28:00.431Z,6.40
2019-01-18T20:31:01.262Z,6.40
2019-01-18T20:33:56.545Z,6.45
2019-01-18T20:40:16.044Z,6.41
2019-01-18T20:43:12.985Z,6.37
2019-01-18T20:46:00.869Z,6.28
2019-01-18T20:48:48.512Z,6.25
2019-01-18T20:51:27.366Z,6.23
2019-01-18T20:54:32.840Z,6.20
2019-01-18T20:57:25.487Z,6.20
2019-01-18T21:00:19.454Z,6.11
2019-01-18T21:03:23.307Z,5.88
2019-01-18T21:09:24.691Z,5.99
2019-01-18T21:12:20.596Z,6.01
2019-01-18T21:15:04.021Z,5.97
2019-01-18T21:18:04.452Z,5.97
2019-01-18T21:20:50.102Z,5.79
2019-01-18T21:23:53.664Z,5.57
2019-01-18T21:26:39.284Z,5.16
2019-01-18T21:29:45.830Z,5.19
2019-01-18T21:32:34.236Z,4.73
2019-01-18T21:35:23.708Z,5.03
2019-01-18T21:38:33.195Z,5.15
2019-01-18T21:41:19.636Z,5.29
2019-01-18T21:44:00.472Z,5.41
2019-01-18T21:46:54.541Z,5.62
2019-01-18T21:49:45.363Z,5.57
2019-01-18T21:52:42.932Z,5.58
2019-01-18T21:55:41.023Z,5.60
2019-01-18T21:58:24.267Z,5.47
2019-01-18T22:01:34.329Z,5.62
2019-01-18T22:04:22.206Z,5.52
2019-01-18T22:07:25.441Z,4.97
2019-01-18T22:10:20.658Z,4.64
2019-01-18T22:16:39.044Z,4.75
2019-01-18T22:19:49.043Z,4.82
2019-01-18T22:22:44.154Z,4.83
2019-01-18T22:25:33.747Z,5.01
2019-01-18T22:28:45.594Z,5.03
2019-01-18T22:31:56.611Z,5.17
2019-01-18T22:35:08.121Z,5.12
2019-01-18T22:37:52.430Z,5.04
2019-01-18T22:40:48.577Z,4.88
2019-01-18T22:43:54.202Z,4.91
2019-01-18T22:47:10.161Z,5.01
2019-01-18T22:49:51.808Z,5.05
2019-01-18T22:52:45.684Z,5.04
2019-01-18T22:55:43.895Z,4.69
2019-01-18T22:58:52.344Z,4.09
2019-01-18T23:01:41.175Z,4.22
2019-01-18T23:04:42.934Z,3.87
2019-01-18T23:07:46.005Z,3.47
2019-01-18T23:10:29.280Z,3.09
2019-01-18T23:13:06.703Z,3.03
2019-01-18T23:15:45.891Z,2.97
2019-01-18T23:18:21.780Z,2.78
2019-01-18T23:21:13.657Z,2.67
2019-01-18T23:24:10.184Z,2.68
2019-01-18T23:27:35.660Z,2.65
2019-01-18T23:33:53.105Z,2.85
2019-01-18T23:36:57.421Z,2.76
2019-01-18T23:43:41.411Z,2.55
2019-01-18T23:46:56.746Z,2.41
2019-01-18T23:49:52.051Z,2.23
2019-01-18T23:53:04.643Z,2.19
2019-01-18T23:56:10.088Z,2.20
2019-01-18T23:59:07.882Z,2.20
